sensor_id;sensor_type;location;lat;lon;timestamp;P1;durP1;ratioP1;P2;durP2;ratioP2
35634;SDS011;21757;43.610;1.440;2023-05-10T00:01:46;20.40;;;4.05;;
35634;SDS011;21757;43.610;1.440;2023-05-10T00:04:11;18.48;;;3.85;;
35634;SDS011;21757;43.610;1.440;2023-05-10T00:06:37;16.27;;;3.67;;
35634;SDS011;21757;43.610;1.440;2023-05-10T00:09:03;22.45;;;4.03;;
35634;SDS011;21757;43.610;1.440;2023-05-10T00:11:29;17.55;;;3.90;;
35634;SDS011;21757;43.610;1.440;2023-05-10T00:13:54;17.17;;;4.22;;
35634;SDS011;21757;43.610;1.440;2023-05-10T00:16:20;16.98;;;4.25;;
35634;SDS011;21757;43.610;1.440;2023-05-10T00:18:46;21.13;;;4.00;;
35634;SDS011;21757;43.610;1.440;2023-05-10T00:21:11;22.55;;;4.47;;
35634;SDS011;21757;43.610;1.440;2023-05-10T00:23:37;16.98;;;4.80;;
35634;SDS011;21757;43.610;1.440;2023-05-10T00:26:03;21.05;;;4.57;;
35634;SDS011;21757;43.610;1.440;2023-05-10T00:28:28;18.33;;;4.40;;
35634;SDS011;21757;43.610;1.440;2023-05-10T00:30:54;20.75;;;4.25;;
35634;SDS011;21757;43.610;1.440;2023-05-10T00:33:20;18.58;;;4.38;;
35634;SDS011;21757;43.610;1.440;2023-05-10T00:35:46;21.17;;;4.55;;
35634;SDS011;21757;43.610;1.440;2023-05-10T00:38:12;23.88;;;4.20;;
35634;SDS011;21757;43.610;1.440;2023-05-10T00:40:37;23.10;;;4.43;;
35634;SDS011;21757;43.610;1.440;2023-05-10T00:43:03;24.58;;;4.15;;
35634;SDS011;21757;43.610;1.440;2023-05-10T00:45:30;23.55;;;4.25;;
35634;SDS011;21757;43.610;1.440;2023-05-10T00:48:01;17.27;;;4.28;;
35634;SDS011;21757;43.610;1.440;2023-05-10T00:50:27;30.77;;;5.15;;
35634;SDS011;21757;43.610;1.440;2023-05-10T00:52:53;20.92;;;4.55;;
35634;SDS011;21757;43.610;1.440;2023-05-10T00:55:20;26.42;;;5.03;;
35634;SDS011;21757;43.610;1.440;2023-05-10T00:57:46;25.13;;;5.35;;
35634;SDS011;21757;43.610;1.440;2023-05-10T01:00:13;21.10;;;4.43;;
35634;SDS011;21757;43.610;1.440;2023-05-10T01:02:43;25.17;;;4.70;;
35634;SDS011;21757;43.610;1.440;2023-05-10T01:05:11;18.17;;;3.92;;
35634;SDS011;21757;43.610;1.440;2023-05-10T01:07:38;24.05;;;4.13;;
35634;SDS011;21757;43.610;1.440;2023-05-10T01:10:07;22.63;;;4.35;;
35634;SDS011;21757;43.610;1.440;2023-05-10T01:12:34;21.33;;;3.72;;
35634;SDS011;21757;43.610;1.440;2023-05-10T01:15:05;24.48;;;4.38;;
35634;SDS011;21757;43.610;1.440;2023-05-10T01:17:33;24.50;;;4.57;;
35634;SDS011;21757;43.610;1.440;2023-05-10T01:20:00;20.92;;;3.40;;
35634;SDS011;21757;43.610;1.440;2023-05-10T01:22:34;22.15;;;4.28;;
35634;SDS011;21757;43.610;1.440;2023-05-10T01:25:49;20.30;;;4.00;;
35634;SDS011;21757;43.610;1.440;2023-05-10T01:31:18;20.05;;;3.80;;
35634;SDS011;21757;43.610;1.440;2023-05-10T01:33:56;23.55;;;4.25;;
35634;SDS011;21757;43.610;1.440;2023-05-10T01:36:40;15.55;;;2.75;;
35634;SDS011;21757;43.610;1.440;2023-05-10T01:39:36;20.38;;;3.60;;
35634;SDS011;21757;43.610;1.440;2023-05-10T01:42:16;18.65;;;3.78;;
35634;SDS011;21757;43.610;1.440;2023-05-10T01:44:49;16.65;;;3.22;;
35634;SDS011;21757;43.610;1.440;2023-05-10T01:47:44;16.23;;;3.97;;
35634;SDS011;21757;43.610;1.440;2023-05-10T01:50:31;19.40;;;3.80;;
35634;SDS011;21757;43.610;1.440;2023-05-10T01:53:00;20.30;;;3.72;;
35634;SDS011;21757;43.610;1.440;2023-05-10T01:55:32;17.88;;;3.97;;
35634;SDS011;21757;43.610;1.440;2023-05-10T01:58:07;18.20;;;3.90;;
35634;SDS011;21757;43.610;1.440;2023-05-10T02:00:36;18.60;;;3.70;;
35634;SDS011;21757;43.610;1.440;2023-05-10T02:03:07;19.85;;;3.75;;
35634;SDS011;21757;43.610;1.440;2023-05-10T02:05:35;19.55;;;3.38;;
35634;SDS011;21757;43.610;1.440;2023-05-10T02:08:01;21.38;;;3.55;;
35634;SDS011;21757;43.610;1.440;2023-05-10T02:10:31;26.40;;;3.63;;
35634;SDS011;21757;43.610;1.440;2023-05-10T02:12:58;19.73;;;3.65;;
35634;SDS011;21757;43.610;1.440;2023-05-10T02:15:26;22.95;;;3.95;;
35634;SDS011;21757;43.610;1.440;2023-05-10T02:17:52;19.45;;;3.22;;
35634;SDS011;21757;43.610;1.440;2023-05-10T02:20:20;20.95;;;3.55;;
35634;SDS011;21757;43.610;1.440;2023-05-10T02:22:51;24.08;;;4.28;;
35634;SDS011;21757;43.610;1.440;2023-05-10T02:25:19;23.90;;;3.97;;
35634;SDS011;21757;43.610;1.440;2023-05-10T02:27:46;16.55;;;3.72;;
35634;SDS011;21757;43.610;1.440;2023-05-10T02:30:13;23.13;;;4.00;;
35634;SDS011;21757;43.610;1.440;2023-05-10T02:32:39;19.73;;;3.80;;
35634;SDS011;21757;43.610;1.440;2023-05-10T02:35:06;22.65;;;4.38;;
35634;SDS011;21757;43.610;1.440;2023-05-10T02:37:33;23.92;;;3.42;;
35634;SDS011;21757;43.610;1.440;2023-05-10T02:40:00;17.40;;;3.50;;
35634;SDS011;21757;43.610;1.440;2023-05-10T02:42:28;24.35;;;3.75;;
35634;SDS011;21757;43.610;1.440;2023-05-10T02:44:59;24.65;;;3.40;;
35634;SDS011;21757;43.610;1.440;2023-05-10T02:47:27;23.98;;;3.80;;
35634;SDS011;21757;43.610;1.440;2023-05-10T02:49:56;21.52;;;3.83;;
35634;SDS011;21757;43.610;1.440;2023-05-10T02:52:25;20.88;;;4.00;;
35634;SDS011;21757;43.610;1.440;2023-05-10T02:54:54;23.17;;;3.38;;
35634;SDS011;21757;43.610;1.440;2023-05-10T02:57:25;24.92;;;3.80;;
35634;SDS011;21757;43.610;1.440;2023-05-10T02:59:53;20.92;;;3.08;;
35634;SDS011;21757;43.610;1.440;2023-05-10T03:02:20;23.05;;;3.70;;
35634;SDS011;21757;43.610;1.440;2023-05-10T03:04:46;16.85;;;3.80;;
35634;SDS011;21757;43.610;1.440;2023-05-10T03:07:12;27.50;;;4.00;;
35634;SDS011;21757;43.610;1.440;2023-05-10T03:09:38;24.35;;;4.40;;
35634;SDS011;21757;43.610;1.440;2023-05-10T03:20:11;18.17;;;3.50;;
35634;SDS011;21757;43.610;1.440;2023-05-10T03:22:47;12.90;;;2.85;;
35634;SDS011;21757;43.610;1.440;2023-05-10T03:25:18;16.30;;;2.88;;
35634;SDS011;21757;43.610;1.440;2023-05-10T03:27:45;15.18;;;2.53;;
35634;SDS011;21757;43.610;1.440;2023-05-10T03:30:12;10.20;;;2.25;;
35634;SDS011;21757;43.610;1.440;2023-05-10T03:32:39;13.95;;;2.97;;
35634;SDS011;21757;43.610;1.440;2023-05-10T03:35:10;12.00;;;2.20;;
35634;SDS011;21757;43.610;1.440;2023-05-10T03:37:38;9.05;;;2.53;;
35634;SDS011;21757;43.610;1.440;2023-05-10T03:40:04;13.68;;;2.80;;
35634;SDS011;21757;43.610;1.440;2023-05-10T03:42:30;14.43;;;2.30;;
35634;SDS011;21757;43.610;1.440;2023-05-10T03:44:56;16.83;;;2.63;;
35634;SDS011;21757;43.610;1.440;2023-05-10T03:47:22;16.45;;;2.92;;
35634;SDS011;21757;43.610;1.440;2023-05-10T03:49:47;15.45;;;2.75;;
35634;SDS011;21757;43.610;1.440;2023-05-10T03:52:13;12.57;;;2.78;;
35634;SDS011;21757;43.610;1.440;2023-05-10T03:54:39;20.30;;;2.55;;
35634;SDS011;21757;43.610;1.440;2023-05-10T03:57:04;16.75;;;2.80;;
35634;SDS011;21757;43.610;1.440;2023-05-10T03:59:30;15.00;;;2.83;;
35634;SDS011;21757;43.610;1.440;2023-05-10T04:01:56;14.60;;;3.63;;
35634;SDS011;21757;43.610;1.440;2023-05-10T04:04:21;14.35;;;2.97;;
35634;SDS011;21757;43.610;1.440;2023-05-10T04:06:48;15.05;;;2.85;;
35634;SDS011;21757;43.610;1.440;2023-05-10T04:09:14;9.80;;;2.60;;
35634;SDS011;21757;43.610;1.440;2023-05-10T04:11:40;16.85;;;2.65;;
35634;SDS011;21757;43.610;1.440;2023-05-10T04:14:05;15.23;;;2.75;;
35634;SDS011;21757;43.610;1.440;2023-05-10T04:16:31;18.15;;;2.72;;
35634;SDS011;21757;43.610;1.440;2023-05-10T04:18:56;16.27;;;2.63;;
35634;SDS011;21757;43.610;1.440;2023-05-10T04:21:22;16.17;;;3.08;;
35634;SDS011;21757;43.610;1.440;2023-05-10T04:23:48;14.50;;;2.40;;
35634;SDS011;21757;43.610;1.440;2023-05-10T04:26:14;12.00;;;2.60;;
35634;SDS011;21757;43.610;1.440;2023-05-10T04:28:39;19.52;;;3.33;;
35634;SDS011;21757;43.610;1.440;2023-05-10T04:31:06;15.38;;;3.13;;
35634;SDS011;21757;43.610;1.440;2023-05-10T04:33:33;16.77;;;3.13;;
35634;SDS011;21757;43.610;1.440;2023-05-10T04:36:00;16.77;;;2.70;;
35634;SDS011;21757;43.610;1.440;2023-05-10T04:38:26;16.33;;;2.80;;
35634;SDS011;21757;43.610;1.440;2023-05-10T04:40:52;16.45;;;2.92;;
35634;SDS011;21757;43.610;1.440;2023-05-10T04:43:18;14.43;;;2.83;;
35634;SDS011;21757;43.610;1.440;2023-05-10T04:45:45;16.95;;;3.08;;
35634;SDS011;21757;43.610;1.440;2023-05-10T04:48:11;16.77;;;2.85;;
35634;SDS011;21757;43.610;1.440;2023-05-10T04:50:36;21.25;;;2.95;;
35634;SDS011;21757;43.610;1.440;2023-05-10T04:53:02;16.75;;;3.17;;
35634;SDS011;21757;43.610;1.440;2023-05-10T04:55:28;20.65;;;3.10;;
35634;SDS011;21757;43.610;1.440;2023-05-10T04:57:53;18.88;;;3.60;;
35634;SDS011;21757;43.610;1.440;2023-05-10T05:00:23;14.45;;;2.85;;
35634;SDS011;21757;43.610;1.440;2023-05-10T05:02:49;18.70;;;3.17;;
35634;SDS011;21757;43.610;1.440;2023-05-10T05:05:15;18.80;;;3.13;;
35634;SDS011;21757;43.610;1.440;2023-05-10T05:07:40;21.55;;;3.58;;
35634;SDS011;21757;43.610;1.440;2023-05-10T05:10:07;18.83;;;3.20;;
35634;SDS011;21757;43.610;1.440;2023-05-10T05:12:33;15.00;;;3.05;;
35634;SDS011;21757;43.610;1.440;2023-05-10T05:14:59;23.02;;;3.63;;
35634;SDS011;21757;43.610;1.440;2023-05-10T05:17:25;19.20;;;4.25;;
35634;SDS011;21757;43.610;1.440;2023-05-10T05:19:51;19.25;;;3.35;;
35634;SDS011;21757;43.610;1.440;2023-05-10T05:22:17;20.73;;;3.90;;
35634;SDS011;21757;43.610;1.440;2023-05-10T05:24:44;17.13;;;2.70;;
35634;SDS011;21757;43.610;1.440;2023-05-10T05:27:10;18.15;;;3.58;;
35634;SDS011;21757;43.610;1.440;2023-05-10T05:29:36;19.30;;;3.40;;
35634;SDS011;21757;43.610;1.440;2023-05-10T05:32:02;17.25;;;3.33;;
35634;SDS011;21757;43.610;1.440;2023-05-10T05:34:28;22.98;;;4.38;;
35634;SDS011;21757;43.610;1.440;2023-05-10T05:36:53;23.58;;;3.70;;
35634;SDS011;21757;43.610;1.440;2023-05-10T05:39:19;19.83;;;3.60;;
35634;SDS011;21757;43.610;1.440;2023-05-10T05:41:45;17.80;;;2.85;;
35634;SDS011;21757;43.610;1.440;2023-05-10T05:44:11;23.85;;;3.35;;
35634;SDS011;21757;43.610;1.440;2023-05-10T05:46:36;28.02;;;3.90;;
35634;SDS011;21757;43.610;1.440;2023-05-10T05:49:03;23.48;;;3.15;;
35634;SDS011;21757;43.610;1.440;2023-05-10T05:51:29;22.45;;;3.72;;
35634;SDS011;21757;43.610;1.440;2023-05-10T05:53:55;26.60;;;3.85;;
35634;SDS011;21757;43.610;1.440;2023-05-10T05:56:21;19.48;;;3.40;;
35634;SDS011;21757;43.610;1.440;2023-05-10T05:58:50;17.17;;;3.65;;
35634;SDS011;21757;43.610;1.440;2023-05-10T06:01:16;17.25;;;3.33;;
35634;SDS011;21757;43.610;1.440;2023-05-10T06:03:41;19.13;;;3.83;;
35634;SDS011;21757;43.610;1.440;2023-05-10T06:06:07;17.95;;;3.47;;
35634;SDS011;21757;43.610;1.440;2023-05-10T06:08:33;20.42;;;3.63;;
35634;SDS011;21757;43.610;1.440;2023-05-10T06:10:59;22.17;;;3.30;;
35634;SDS011;21757;43.610;1.440;2023-05-10T06:13:25;21.98;;;3.47;;
35634;SDS011;21757;43.610;1.440;2023-05-10T06:18:22;20.35;;;3.53;;
35634;SDS011;21757;43.610;1.440;2023-05-10T06:20:49;12.93;;;2.70;;
35634;SDS011;21757;43.610;1.440;2023-05-10T06:23:15;20.40;;;3.30;;
35634;SDS011;21757;43.610;1.440;2023-05-10T06:25:40;16.38;;;3.10;;
35634;SDS011;21757;43.610;1.440;2023-05-10T06:28:06;20.92;;;3.40;;
35634;SDS011;21757;43.610;1.440;2023-05-10T06:30:32;17.02;;;3.85;;
35634;SDS011;21757;43.610;1.440;2023-05-10T06:32:57;22.63;;;3.88;;
35634;SDS011;21757;43.610;1.440;2023-05-10T06:35:23;15.70;;;3.00;;
35634;SDS011;21757;43.610;1.440;2023-05-10T06:37:49;21.85;;;3.78;;
35634;SDS011;21757;43.610;1.440;2023-05-10T06:40:16;16.70;;;3.63;;
35634;SDS011;21757;43.610;1.440;2023-05-10T06:42:42;23.08;;;3.72;;
35634;SDS011;21757;43.610;1.440;2023-05-10T06:45:09;16.35;;;3.08;;
35634;SDS011;21757;43.610;1.440;2023-05-10T06:47:35;21.27;;;3.78;;
35634;SDS011;21757;43.610;1.440;2023-05-10T06:50:01;18.35;;;3.13;;
35634;SDS011;21757;43.610;1.440;2023-05-10T06:52:27;14.48;;;3.40;;
35634;SDS011;21757;43.610;1.440;2023-05-10T06:54:53;20.88;;;3.42;;
35634;SDS011;21757;43.610;1.440;2023-05-10T06:57:19;42.03;;;18.15;;
35634;SDS011;21757;43.610;1.440;2023-05-10T06:59:45;28.50;;;8.45;;
35634;SDS011;21757;43.610;1.440;2023-05-10T07:02:11;28.52;;;7.63;;
35634;SDS011;21757;43.610;1.440;2023-05-10T07:04:37;25.23;;;4.72;;
35634;SDS011;21757;43.610;1.440;2023-05-10T07:07:02;21.10;;;3.63;;
35634;SDS011;21757;43.610;1.440;2023-05-10T07:09:28;20.52;;;3.70;;
35634;SDS011;21757;43.610;1.440;2023-05-10T07:11:54;18.88;;;5.18;;
35634;SDS011;21757;43.610;1.440;2023-05-10T07:14:22;25.67;;;3.40;;
35634;SDS011;21757;43.610;1.440;2023-05-10T07:16:48;18.20;;;3.15;;
35634;SDS011;21757;43.610;1.440;2023-05-10T07:19:14;16.42;;;3.40;;
35634;SDS011;21757;43.610;1.440;2023-05-10T07:21:40;16.67;;;3.65;;
35634;SDS011;21757;43.610;1.440;2023-05-10T07:24:07;15.88;;;3.50;;
35634;SDS011;21757;43.610;1.440;2023-05-10T07:26:33;16.08;;;3.13;;
35634;SDS011;21757;43.610;1.440;2023-05-10T07:28:59;21.55;;;4.30;;
35634;SDS011;21757;43.610;1.440;2023-05-10T07:31:24;23.95;;;4.30;;
35634;SDS011;21757;43.610;1.440;2023-05-10T07:33:50;14.15;;;3.30;;
35634;SDS011;21757;43.610;1.440;2023-05-10T07:36:15;14.15;;;2.80;;
35634;SDS011;21757;43.610;1.440;2023-05-10T07:38:41;17.02;;;3.15;;
35634;SDS011;21757;43.610;1.440;2023-05-10T07:41:07;18.30;;;3.70;;
35634;SDS011;21757;43.610;1.440;2023-05-10T07:43:33;21.27;;;3.65;;
35634;SDS011;21757;43.610;1.440;2023-05-10T07:45:58;18.75;;;3.25;;
35634;SDS011;21757;43.610;1.440;2023-05-10T07:48:24;16.30;;;3.10;;
35634;SDS011;21757;43.610;1.440;2023-05-10T07:50:50;15.30;;;2.72;;
35634;SDS011;21757;43.610;1.440;2023-05-10T07:53:16;19.70;;;3.28;;
35634;SDS011;21757;43.610;1.440;2023-05-10T07:55:43;14.88;;;3.15;;
35634;SDS011;21757;43.610;1.440;2023-05-10T07:58:10;14.10;;;3.10;;
35634;SDS011;21757;43.610;1.440;2023-05-10T08:00:36;18.50;;;2.88;;
35634;SDS011;21757;43.610;1.440;2023-05-10T08:03:04;14.80;;;2.70;;
35634;SDS011;21757;43.610;1.440;2023-05-10T08:05:30;19.27;;;3.13;;
35634;SDS011;21757;43.610;1.440;2023-05-10T08:07:56;14.57;;;2.97;;
35634;SDS011;21757;43.610;1.440;2023-05-10T08:10:21;14.93;;;2.83;;
35634;SDS011;21757;43.610;1.440;2023-05-10T08:12:47;19.42;;;3.17;;
35634;SDS011;21757;43.610;1.440;2023-05-10T08:15:13;14.45;;;2.83;;
35634;SDS011;21757;43.610;1.440;2023-05-10T08:17:38;18.90;;;3.60;;
35634;SDS011;21757;43.610;1.440;2023-05-10T08:20:04;20.20;;;3.63;;
35634;SDS011;21757;43.610;1.440;2023-05-10T08:22:30;17.88;;;3.13;;
35634;SDS011;21757;43.610;1.440;2023-05-10T08:24:56;26.17;;;7.00;;
35634;SDS011;21757;43.610;1.440;2023-05-10T08:27:22;23.10;;;6.88;;
35634;SDS011;21757;43.610;1.440;2023-05-10T08:29:47;17.98;;;3.40;;
35634;SDS011;21757;43.610;1.440;2023-05-10T08:32:13;18.58;;;3.53;;
35634;SDS011;21757;43.610;1.440;2023-05-10T08:34:39;16.27;;;4.00;;
35634;SDS011;21757;43.610;1.440;2023-05-10T08:37:04;14.23;;;3.10;;
35634;SDS011;21757;43.610;1.440;2023-05-10T08:39:33;17.17;;;3.35;;
35634;SDS011;21757;43.610;1.440;2023-05-10T08:42:02;15.70;;;3.05;;
35634;SDS011;21757;43.610;1.440;2023-05-10T08:44:31;18.92;;;4.13;;
35634;SDS011;21757;43.610;1.440;2023-05-10T08:46:59;16.00;;;3.42;;
35634;SDS011;21757;43.610;1.440;2023-05-10T08:49:26;19.38;;;3.55;;
35634;SDS011;21757;43.610;1.440;2023-05-10T08:51:55;12.50;;;3.03;;
35634;SDS011;21757;43.610;1.440;2023-05-10T08:54:24;13.55;;;2.92;;
35634;SDS011;21757;43.610;1.440;2023-05-10T08:56:50;12.82;;;2.85;;
35634;SDS011;21757;43.610;1.440;2023-05-10T08:59:16;15.02;;;3.17;;
35634;SDS011;21757;43.610;1.440;2023-05-10T09:01:42;19.83;;;3.00;;
35634;SDS011;21757;43.610;1.440;2023-05-10T09:04:09;15.00;;;3.55;;
35634;SDS011;21757;43.610;1.440;2023-05-10T09:06:35;24.33;;;4.03;;
35634;SDS011;21757;43.610;1.440;2023-05-10T09:09:02;14.82;;;3.45;;
35634;SDS011;21757;43.610;1.440;2023-05-10T09:11:28;17.35;;;2.95;;
35634;SDS011;21757;43.610;1.440;2023-05-10T09:13:55;11.77;;;2.22;;
35634;SDS011;21757;43.610;1.440;2023-05-10T09:16:21;20.05;;;5.13;;
35634;SDS011;21757;43.610;1.440;2023-05-10T09:18:48;13.70;;;4.60;;
35634;SDS011;21757;43.610;1.440;2023-05-10T09:21:17;11.82;;;2.53;;
35634;SDS011;21757;43.610;1.440;2023-05-10T09:23:44;15.60;;;2.90;;
35634;SDS011;21757;43.610;1.440;2023-05-10T09:26:12;12.45;;;2.85;;
35634;SDS011;21757;43.610;1.440;2023-05-10T09:28:50;14.20;;;2.83;;
35634;SDS011;21757;43.610;1.440;2023-05-10T09:31:16;15.57;;;2.60;;
35634;SDS011;21757;43.610;1.440;2023-05-10T09:33:45;6.70;;;1.65;;
35634;SDS011;21757;43.610;1.440;2023-05-10T09:36:12;14.52;;;3.58;;
35634;SDS011;21757;43.610;1.440;2023-05-10T09:38:45;12.05;;;2.45;;
35634;SDS011;21757;43.610;1.440;2023-05-10T09:41:16;12.05;;;3.45;;
35634;SDS011;21757;43.610;1.440;2023-05-10T09:43:46;13.38;;;3.25;;
35634;SDS011;21757;43.610;1.440;2023-05-10T09:46:12;10.23;;;2.45;;
35634;SDS011;21757;43.610;1.440;2023-05-10T09:48:40;12.38;;;2.80;;
35634;SDS011;21757;43.610;1.440;2023-05-10T09:51:07;10.07;;;2.33;;
35634;SDS011;21757;43.610;1.440;2023-05-10T09:53:33;14.50;;;3.20;;
35634;SDS011;21757;43.610;1.440;2023-05-10T09:55:59;11.48;;;2.28;;
35634;SDS011;21757;43.610;1.440;2023-05-10T09:58:24;15.95;;;3.40;;
35634;SDS011;21757;43.610;1.440;2023-05-10T10:00:50;12.30;;;2.70;;
35634;SDS011;21757;43.610;1.440;2023-05-10T10:03:18;14.57;;;2.92;;
35634;SDS011;21757;43.610;1.440;2023-05-10T10:05:45;11.00;;;2.95;;
35634;SDS011;21757;43.610;1.440;2023-05-10T10:08:12;16.27;;;3.13;;
35634;SDS011;21757;43.610;1.440;2023-05-10T10:10:39;12.65;;;3.45;;
35634;SDS011;21757;43.610;1.440;2023-05-10T10:13:05;11.80;;;2.50;;
35634;SDS011;21757;43.610;1.440;2023-05-10T10:15:31;12.52;;;3.45;;
35634;SDS011;21757;43.610;1.440;2023-05-10T10:17:58;13.13;;;2.97;;
35634;SDS011;21757;43.610;1.440;2023-05-10T10:20:24;9.82;;;2.53;;
35634;SDS011;21757;43.610;1.440;2023-05-10T10:22:51;11.23;;;2.35;;
35634;SDS011;21757;43.610;1.440;2023-05-10T10:25:17;11.60;;;2.38;;
35634;SDS011;21757;43.610;1.440;2023-05-10T10:35:37;8.57;;;2.58;;
35634;SDS011;21757;43.610;1.440;2023-05-10T10:38:03;9.15;;;1.92;;
35634;SDS011;21757;43.610;1.440;2023-05-10T10:40:33;8.02;;;1.63;;
35634;SDS011;21757;43.610;1.440;2023-05-10T10:43:21;8.45;;;1.95;;
35634;SDS011;21757;43.610;1.440;2023-05-10T10:45:59;10.73;;;1.88;;
35634;SDS011;21757;43.610;1.440;2023-05-10T10:48:40;10.43;;;2.50;;
35634;SDS011;21757;43.610;1.440;2023-05-10T10:51:13;10.52;;;1.95;;
35634;SDS011;21757;43.610;1.440;2023-05-10T10:53:39;8.73;;;1.98;;
35634;SDS011;21757;43.610;1.440;2023-05-10T10:56:09;12.23;;;2.47;;
35634;SDS011;21757;43.610;1.440;2023-05-10T10:58:37;9.75;;;1.88;;
35634;SDS011;21757;43.610;1.440;2023-05-10T11:01:17;25.65;;;11.77;;
35634;SDS011;21757;43.610;1.440;2023-05-10T11:06:37;22.42;;;6.68;;
35634;SDS011;21757;43.610;1.440;2023-05-10T11:09:10;15.52;;;6.38;;
35634;SDS011;21757;43.610;1.440;2023-05-10T11:11:48;9.25;;;2.28;;
35634;SDS011;21757;43.610;1.440;2023-05-10T11:14:18;14.35;;;2.90;;
35634;SDS011;21757;43.610;1.440;2023-05-10T11:16:46;12.93;;;3.65;;
35634;SDS011;21757;43.610;1.440;2023-05-10T11:19:12;13.38;;;3.08;;
35634;SDS011;21757;43.610;1.440;2023-05-10T11:21:45;16.13;;;3.83;;
35634;SDS011;21757;43.610;1.440;2023-05-10T11:24:19;13.32;;;2.90;;
35634;SDS011;21757;43.610;1.440;2023-05-10T11:26:49;12.50;;;2.63;;
35634;SDS011;21757;43.610;1.440;2023-05-10T11:29:16;13.43;;;2.70;;
35634;SDS011;21757;43.610;1.440;2023-05-10T11:31:45;12.05;;;3.25;;
35634;SDS011;21757;43.610;1.440;2023-05-10T11:34:28;14.88;;;2.75;;
35634;SDS011;21757;43.610;1.440;2023-05-10T11:36:56;11.60;;;2.58;;
35634;SDS011;21757;43.610;1.440;2023-05-10T11:39:27;14.65;;;2.70;;
35634;SDS011;21757;43.610;1.440;2023-05-10T11:41:54;12.90;;;2.25;;
35634;SDS011;21757;43.610;1.440;2023-05-10T11:44:21;11.57;;;2.28;;
35634;SDS011;21757;43.610;1.440;2023-05-10T11:46:46;14.07;;;2.40;;
35634;SDS011;21757;43.610;1.440;2023-05-10T11:49:15;8.25;;;1.77;;
35634;SDS011;21757;43.610;1.440;2023-05-10T11:51:40;8.68;;;2.13;;
35634;SDS011;21757;43.610;1.440;2023-05-10T11:54:09;7.22;;;1.60;;
35634;SDS011;21757;43.610;1.440;2023-05-10T11:56:39;8.82;;;1.80;;
35634;SDS011;21757;43.610;1.440;2023-05-10T11:59:05;8.80;;;1.90;;
35634;SDS011;21757;43.610;1.440;2023-05-10T12:01:32;6.22;;;1.60;;
35634;SDS011;21757;43.610;1.440;2023-05-10T12:03:59;6.63;;;1.35;;
35634;SDS011;21757;43.610;1.440;2023-05-10T12:06:26;8.73;;;1.98;;
35634;SDS011;21757;43.610;1.440;2023-05-10T12:08:54;9.10;;;1.65;;
35634;SDS011;21757;43.610;1.440;2023-05-10T12:11:20;9.98;;;3.80;;
35634;SDS011;21757;43.610;1.440;2023-05-10T12:13:49;6.38;;;2.75;;
35634;SDS011;21757;43.610;1.440;2023-05-10T12:16:16;15.45;;;6.22;;
35634;SDS011;21757;43.610;1.440;2023-05-10T12:18:44;8.60;;;3.72;;
35634;SDS011;21757;43.610;1.440;2023-05-10T12:21:10;7.00;;;2.40;;
35634;SDS011;21757;43.610;1.440;2023-05-10T12:23:37;5.93;;;1.20;;
35634;SDS011;21757;43.610;1.440;2023-05-10T12:26:03;5.35;;;1.67;;
35634;SDS011;21757;43.610;1.440;2023-05-10T12:28:30;6.10;;;1.90;;
35634;SDS011;21757;43.610;1.440;2023-05-10T12:30:57;11.68;;;1.67;;
35634;SDS011;21757;43.610;1.440;2023-05-10T12:33:24;12.55;;;1.80;;
35634;SDS011;21757;43.610;1.440;2023-05-10T12:35:51;3.67;;;1.27;;
35634;SDS011;21757;43.610;1.440;2023-05-10T12:38:28;8.55;;;1.50;;
35634;SDS011;21757;43.610;1.440;2023-05-10T12:41:14;8.90;;;1.70;;
35634;SDS011;21757;43.610;1.440;2023-05-10T12:43:41;10.18;;;1.95;;
35634;SDS011;21757;43.610;1.440;2023-05-10T12:46:10;7.50;;;1.80;;
35634;SDS011;21757;43.610;1.440;2023-05-10T12:48:38;11.57;;;2.30;;
35634;SDS011;21757;43.610;1.440;2023-05-10T12:51:05;7.97;;;1.77;;
35634;SDS011;21757;43.610;1.440;2023-05-10T12:53:34;6.70;;;1.60;;
35634;SDS011;21757;43.610;1.440;2023-05-10T12:56:00;6.63;;;1.58;;
35634;SDS011;21757;43.610;1.440;2023-05-10T12:58:26;14.45;;;5.90;;
35634;SDS011;21757;43.610;1.440;2023-05-10T13:00:52;7.53;;;2.45;;
35634;SDS011;21757;43.610;1.440;2023-05-10T13:03:17;7.57;;;2.25;;
35634;SDS011;21757;43.610;1.440;2023-05-10T13:05:46;12.77;;;5.53;;
35634;SDS011;21757;43.610;1.440;2023-05-10T13:08:12;14.98;;;7.20;;
35634;SDS011;21757;43.610;1.440;2023-05-10T13:10:37;7.05;;;2.85;;
35634;SDS011;21757;43.610;1.440;2023-05-10T13:13:03;44.58;;;25.38;;
35634;SDS011;21757;43.610;1.440;2023-05-10T13:15:30;5.43;;;1.38;;
35634;SDS011;21757;43.610;1.440;2023-05-10T13:17:58;11.13;;;4.47;;
35634;SDS011;21757;43.610;1.440;2023-05-10T13:20:25;10.50;;;4.80;;
35634;SDS011;21757;43.610;1.440;2023-05-10T13:22:51;5.13;;;1.40;;
35634;SDS011;21757;43.610;1.440;2023-05-10T13:25:17;6.53;;;2.28;;
35634;SDS011;21757;43.610;1.440;2023-05-10T13:27:43;6.30;;;3.05;;
35634;SDS011;21757;43.610;1.440;2023-05-10T13:30:09;5.05;;;2.20;;
35634;SDS011;21757;43.610;1.440;2023-05-10T13:32:36;4.78;;;2.22;;
35634;SDS011;21757;43.610;1.440;2023-05-10T13:35:02;6.40;;;2.00;;
35634;SDS011;21757;43.610;1.440;2023-05-10T13:37:30;5.38;;;1.13;;
35634;SDS011;21757;43.610;1.440;2023-05-10T13:39:56;8.68;;;1.73;;
35634;SDS011;21757;43.610;1.440;2023-05-10T13:42:22;5.60;;;1.33;;
35634;SDS011;21757;43.610;1.440;2023-05-10T13:44:48;4.25;;;1.30;;
35634;SDS011;21757;43.610;1.440;2023-05-10T13:47:14;6.45;;;1.20;;
35634;SDS011;21757;43.610;1.440;2023-05-10T13:49:40;8.52;;;1.40;;
35634;SDS011;21757;43.610;1.440;2023-05-10T13:52:06;5.30;;;1.40;;
35634;SDS011;21757;43.610;1.440;2023-05-10T13:54:36;5.63;;;1.63;;
35634;SDS011;21757;43.610;1.440;2023-05-10T13:57:03;6.33;;;1.50;;
35634;SDS011;21757;43.610;1.440;2023-05-10T13:59:29;5.80;;;1.85;;
35634;SDS011;21757;43.610;1.440;2023-05-10T14:01:56;7.57;;;1.63;;
35634;SDS011;21757;43.610;1.440;2023-05-10T14:04:23;7.15;;;2.40;;
35634;SDS011;21757;43.610;1.440;2023-05-10T14:06:49;7.82;;;1.65;;
35634;SDS011;21757;43.610;1.440;2023-05-10T14:09:14;8.00;;;1.70;;
35634;SDS011;21757;43.610;1.440;2023-05-10T14:11:40;6.63;;;1.08;;
35634;SDS011;21757;43.610;1.440;2023-05-10T14:14:08;8.10;;;1.30;;
35634;SDS011;21757;43.610;1.440;2023-05-10T14:16:34;9.90;;;1.67;;
35634;SDS011;21757;43.610;1.440;2023-05-10T14:19:00;7.72;;;1.55;;
35634;SDS011;21757;43.610;1.440;2023-05-10T14:21:26;5.90;;;1.55;;
35634;SDS011;21757;43.610;1.440;2023-05-10T14:23:54;7.07;;;1.70;;
35634;SDS011;21757;43.610;1.440;2023-05-10T14:26:20;6.28;;;1.23;;
35634;SDS011;21757;43.610;1.440;2023-05-10T14:28:46;8.68;;;1.85;;
35634;SDS011;21757;43.610;1.440;2023-05-10T14:31:12;7.35;;;1.88;;
35634;SDS011;21757;43.610;1.440;2023-05-10T14:33:39;5.90;;;1.85;;
35634;SDS011;21757;43.610;1.440;2023-05-10T14:36:05;7.20;;;1.50;;
35634;SDS011;21757;43.610;1.440;2023-05-10T14:38:31;8.20;;;1.80;;
35634;SDS011;21757;43.610;1.440;2023-05-10T14:40:57;8.23;;;1.52;;
35634;SDS011;21757;43.610;1.440;2023-05-10T14:43:23;5.75;;;1.60;;
35634;SDS011;21757;43.610;1.440;2023-05-10T14:45:49;8.70;;;1.83;;
35634;SDS011;21757;43.610;1.440;2023-05-10T14:48:15;6.95;;;1.98;;
35634;SDS011;21757;43.610;1.440;2023-05-10T14:50:42;5.60;;;1.55;;
35634;SDS011;21757;43.610;1.440;2023-05-10T14:53:09;5.70;;;1.40;;
35634;SDS011;21757;43.610;1.440;2023-05-10T14:55:34;5.25;;;1.50;;
35634;SDS011;21757;43.610;1.440;2023-05-10T14:58:03;5.93;;;1.42;;
35634;SDS011;21757;43.610;1.440;2023-05-10T15:00:31;5.82;;;1.33;;
35634;SDS011;21757;43.610;1.440;2023-05-10T15:02:56;7.70;;;1.90;;
35634;SDS011;21757;43.610;1.440;2023-05-10T15:05:22;8.18;;;1.55;;